Pagrindinis puslapis
METAR-TAF:

METAR-TAF

Oro uostai :

Odensė, Danija

platuma: 55-29N, ilguma: 010-20E, Aukštis: 17 m

Dabartinis oras

Ataskaita buvo paskelbta 10 valandos ir 11 minutes, ne 14:50 UTC
Vėjas 3 kt iš Šiaurės/Šiaurės Rytų
Temperatūra 13°C
Drėgmė 88%
Slėgis 1015 hPa
Matomumas 10 km arba daugiau
Mažai debesys ne aukštis 2400 ft
Su prošvaistėmis ne aukštis 17000 ft

METAR: EKOD 141450Z 02003KT 9999 FEW024 BKN170 13/11 Q1015

Laikas: 03:01 (01:01 UTC)

Prognozė

Ataskaita buvo paskelbta 14 valandos ir 0 minutes, ne 11:01 UTC
Prognozė galioja nuo 14 metu 12 UTC su 14 metu 17 UTC
Vėjas 2 kt nuo kintamojo kryptimis
Matomumas 10 km arba daugiau
Išsisklaidę debesys ne aukštis 3000 ft

TAF: EKOD 141101Z 1412/1417 VRB02KT 9999 SCT030

Orai ataskaitas ir orų prognozės (METAR, TAF).

turimą stotys yra geltonos ir raudonos taškus žemėlapyje.

Perkelti pele per norėdami pamatyti stoties vardą.

Tada spustelėkite, norėdami matyti oro stebėjimo ir prognozės.

Norėdami pakeisti žemėlapį: spustelėkite ant žalios mygtukų su juodo kryžiaus žemyn,; žalią mygtuką su brūkšneliu, jei norite nutolinti; arba žalių rodyklių gretimoms žemėlapius.


METAR-TAF: